Terminal Aerodrome Forecast
Issued by NWS Corpus Christi, TX

Home | Current Version | Previous Version | Text Only | Print | Product List | Glossary On
Versions: 1 2 3 4 5 6 7 8 9 10 11 12 13 14 15
000
FTUS44 KCRP 110837 AAB
TAFCRP
TAF AMD
KCRP 110837Z 1109/1206 VRB03KT 2SM BR OVC004 WS020/18040KT
      TEMPO 1111/1114 3/4SM BR
     FM111500 19006KT P6SM OVC008
     FM111800 18015G25KT P6SM OVC015
     FM120000 17008KT P6SM OVC012=

USA.gov is the U.S. government's official web portal to all federal, state and local government web resources and services.